Time,TemperatureF,DewpointF,PressureIn,WindDirection,WindDirectionDegrees,WindSpeedMPH,WindSpeedGustMPH,Humidity,HourlyPrecipIn,Conditions,Clouds,dailyrainin,SoftwareType,DateUTC
2013-07-08 00:22:00,80.0,66.0,29.98,SSW,200,0.0,4.0,62,0.00,,,0.02,,2013-07-08 05:22:00,
2013-07-08 00:34:00,80.0,66.0,29.98,SSW,200,0.0,4.0,62,0.00,,,0.02,,2013-07-08 05:34:00,
2013-07-08 00:43:00,80.0,66.0,29.98,SSW,200,0.0,4.0,62,0.00,,,0.02,,2013-07-08 05:43:00,
2013-07-08 00:53:00,80.0,66.0,29.98,SSW,200,0.0,4.0,62,0.00,,,0.02,,2013-07-08 05:53:00,
2013-07-08 01:01:00,80.0,66.0,29.98,SSW,200,0.0,4.0,62,0.00,,,0.02,,2013-07-08 06:01:00,
2013-07-08 02:22:00,78.0,66.0,29.98,SW,226,3.0,5.0,66,0.00,,,0.02,,2013-07-08 07:22:00,
2013-07-08 02:34:00,78.0,66.0,29.98,SW,226,3.0,5.0,66,0.00,,,0.02,,2013-07-08 07:34:00,
2013-07-08 02:44:00,78.0,66.0,29.98,SW,226,3.0,5.0,66,0.00,,,0.02,,2013-07-08 07:44:00,
2013-07-08 02:53:00,78.0,66.0,29.98,SW,226,3.0,5.0,66,0.00,,,0.02,,2013-07-08 07:53:00,
2013-07-08 03:02:00,78.0,66.0,29.98,SW,226,3.0,5.0,66,0.00,,,0.02,,2013-07-08 08:02:00,
2013-07-08 04:02:00,77.0,65.0,29.98,SW,215,4.0,8.0,66,0.00,,,0.00,,2013-07-08 09:02:00,
2013-07-08 04:22:00,77.0,65.0,29.98,SW,215,4.0,8.0,66,0.00,,,0.00,,2013-07-08 09:22:00,
2013-07-08 04:34:00,77.0,65.0,29.98,SW,215,4.0,8.0,66,0.00,,,0.00,,2013-07-08 09:34:00,
2013-07-08 04:43:00,77.0,65.0,29.98,SW,215,4.0,8.0,66,0.00,,,0.00,,2013-07-08 09:43:00,
2013-07-08 04:53:00,77.0,65.0,29.98,SW,215,4.0,8.0,66,0.00,,,0.00,,2013-07-08 09:53:00,
2013-07-08 06:23:00,76.0,65.0,30.00,WSW,253,2.0,6.0,70,0.00,,,0.00,,2013-07-08 11:23:00,
2013-07-08 06:33:00,76.0,65.0,30.00,WSW,253,2.0,6.0,70,0.00,,,0.00,,2013-07-08 11:33:00,
2013-07-08 06:43:00,76.0,65.0,30.00,WSW,253,2.0,6.0,70,0.00,,,0.00,,2013-07-08 11:43:00,
2013-07-08 06:53:00,76.0,65.0,30.00,WSW,253,2.0,6.0,70,0.00,,,0.00,,2013-07-08 11:53:00,
2013-07-08 07:01:00,76.0,65.0,30.00,WSW,253,2.0,6.0,70,0.00,,,0.00,,2013-07-08 12:01:00,
2013-07-08 08:02:00,78.0,67.0,30.01,SSW,205,3.0,6.0,68,0.00,,,0.00,,2013-07-08 13:02:00,
2013-07-08 08:22:00,78.0,67.0,30.01,SSW,205,3.0,6.0,68,0.00,,,0.00,,2013-07-08 13:22:00,
2013-07-08 08:33:00,78.0,67.0,30.01,SSW,205,3.0,6.0,68,0.00,,,0.00,,2013-07-08 13:33:00,
2013-07-08 08:42:00,78.0,67.0,30.01,SSW,205,3.0,6.0,68,0.00,,,0.00,,2013-07-08 13:42:00,
2013-07-08 08:53:00,78.0,67.0,30.01,SSW,205,3.0,6.0,68,0.00,,,0.00,,2013-07-08 13:53:00,
2013-07-08 10:22:00,84.0,68.0,30.02,WSW,246,5.0,15.0,59,0.00,,,0.00,,2013-07-08 15:22:00,
2013-07-08 10:33:00,84.0,68.0,30.02,WSW,246,5.0,15.0,59,0.00,,,0.00,,2013-07-08 15:33:00,
2013-07-08 10:43:00,84.0,68.0,30.02,WSW,246,5.0,15.0,59,0.00,,,0.00,,2013-07-08 15:43:00,
2013-07-08 10:53:00,84.0,68.0,30.02,WSW,246,5.0,15.0,59,0.00,,,0.00,,2013-07-08 15:53:00,
2013-07-08 11:01:00,84.0,68.0,30.02,WSW,246,5.0,15.0,59,0.00,,,0.00,,2013-07-08 16:01:00,
2013-07-08 12:03:00,88.0,69.0,30.02,SW,225,5.0,14.0,54,0.00,,,0.00,,2013-07-08 17:03:00,
2013-07-08 12:29:00,88.0,69.0,30.02,SW,225,5.0,14.0,54,0.00,,,0.00,,2013-07-08 17:29:00,
2013-07-08 12:37:00,88.0,69.0,30.02,SW,225,5.0,14.0,54,0.00,,,0.00,,2013-07-08 17:37:00,
2013-07-08 12:48:00,88.0,69.0,30.02,SW,225,5.0,14.0,54,0.00,,,0.00,,2013-07-08 17:48:00,
2013-07-08 12:55:00,88.0,69.0,30.02,SW,225,5.0,14.0,54,0.00,,,0.00,,2013-07-08 17:55:00,
2013-07-08 14:03:00,94.0,68.0,30.00,SW,218,8.0,14.0,43,0.00,,,0.00,,2013-07-08 19:03:00,
2013-07-08 14:36:00,94.0,68.0,30.00,SW,218,8.0,14.0,43,0.00,,,0.00,,2013-07-08 19:36:00,
2013-07-08 14:57:00,94.0,68.0,30.00,SW,218,8.0,14.0,43,0.00,,,0.00,,2013-07-08 19:57:00,
2013-07-08 16:36:00,96.0,68.0,29.98,SE,141,5.0,12.0,40,0.00,,,0.00,,2013-07-08 21:36:00,
2013-07-08 18:02:00,96.0,68.0,29.96,SE,144,6.0,16.0,40,0.00,,,0.00,,2013-07-08 23:02:00,
2013-07-08 18:35:00,96.0,68.0,29.96,SE,144,6.0,16.0,40,0.00,,,0.00,,2013-07-08 23:35:00,
2013-07-08 18:59:00,96.0,68.0,29.96,SE,144,6.0,16.0,40,0.00,,,0.00,,2013-07-08 23:59:00,
2013-07-08 20:04:00,-999.0,-99.9,29.96,South,172,3.0,9.0,46,0.00,,,0.00,,2013-07-09 01:04:00,
2013-07-08 20:37:00,92.0,68.0,29.96,South,172,3.0,9.0,46,0.00,,,0.00,,2013-07-09 01:37:00,
2013-07-08 20:47:00,92.0,68.0,29.96,South,172,3.0,9.0,46,0.00,,,0.00,,2013-07-09 01:47:00,
2013-07-08 23:02:00,86.0,69.0,29.98,SW,218,4.0,8.0,57,0.00,,,0.00,,2013-07-09 04:02:00,